sensor_id;sensor_type;location;lat;lon;timestamp;P1;durP1;ratioP1;P2;durP2;ratioP2
10013;SDS011;45684;48.358;10.746;2024-02-21T00:02:10;44.70;;;42.50;;
10013;SDS011;45684;48.358;10.746;2024-02-21T00:04:38;54.37;;;51.63;;
10013;SDS011;45684;48.358;10.746;2024-02-21T00:07:06;60.80;;;57.83;;
10013;SDS011;45684;48.358;10.746;2024-02-21T00:09:34;72.07;;;68.67;;
10013;SDS011;45684;48.358;10.746;2024-02-21T00:12:02;45.50;;;43.10;;
10013;SDS011;45684;48.358;10.746;2024-02-21T00:14:31;46.37;;;44.13;;
10013;SDS011;45684;48.358;10.746;2024-02-21T00:16:59;50.23;;;47.73;;
10013;SDS011;45684;48.358;10.746;2024-02-21T00:19:28;103.70;;;99.23;;
10013;SDS011;45684;48.358;10.746;2024-02-21T00:21:56;93.33;;;89.10;;
10013;SDS011;45684;48.358;10.746;2024-02-21T00:24:24;71.67;;;68.33;;
10013;SDS011;45684;48.358;10.746;2024-02-21T00:26:53;54.90;;;52.53;;
10013;SDS011;45684;48.358;10.746;2024-02-21T00:29:21;58.50;;;55.80;;
10013;SDS011;45684;48.358;10.746;2024-02-21T00:31:49;48.07;;;45.87;;
10013;SDS011;45684;48.358;10.746;2024-02-21T00:34:17;45.83;;;43.33;;
10013;SDS011;45684;48.358;10.746;2024-02-21T00:36:46;47.37;;;45.27;;
10013;SDS011;45684;48.358;10.746;2024-02-21T00:39:14;48.67;;;46.37;;
10013;SDS011;45684;48.358;10.746;2024-02-21T00:41:42;52.43;;;50.07;;
10013;SDS011;45684;48.358;10.746;2024-02-21T00:44:10;47.23;;;44.87;;
10013;SDS011;45684;48.358;10.746;2024-02-21T00:46:38;45.67;;;43.57;;
10013;SDS011;45684;48.358;10.746;2024-02-21T00:49:06;48.93;;;46.37;;
10013;SDS011;45684;48.358;10.746;2024-02-21T00:51:34;44.83;;;42.23;;
10013;SDS011;45684;48.358;10.746;2024-02-21T00:54:03;37.83;;;35.90;;
10013;SDS011;45684;48.358;10.746;2024-02-21T00:56:31;42.10;;;40.10;;
10013;SDS011;45684;48.358;10.746;2024-02-21T00:58:59;47.70;;;45.50;;
10013;SDS011;45684;48.358;10.746;2024-02-21T01:01:27;36.90;;;35.13;;
10013;SDS011;45684;48.358;10.746;2024-02-21T01:03:55;45.23;;;43.03;;
10013;SDS011;45684;48.358;10.746;2024-02-21T01:06:23;39.27;;;36.93;;
10013;SDS011;45684;48.358;10.746;2024-02-21T01:08:51;45.13;;;43.00;;
10013;SDS011;45684;48.358;10.746;2024-02-21T01:11:20;46.13;;;43.67;;
10013;SDS011;45684;48.358;10.746;2024-02-21T01:13:48;108.20;;;103.37;;
10013;SDS011;45684;48.358;10.746;2024-02-21T01:16:16;110.00;;;105.37;;
10013;SDS011;45684;48.358;10.746;2024-02-21T01:18:44;85.70;;;81.77;;
10013;SDS011;45684;48.358;10.746;2024-02-21T01:21:12;88.57;;;84.53;;
10013;SDS011;45684;48.358;10.746;2024-02-21T01:23:40;79.33;;;75.93;;
10013;SDS011;45684;48.358;10.746;2024-02-21T01:26:08;53.73;;;51.27;;
10013;SDS011;45684;48.358;10.746;2024-02-21T01:28:41;47.80;;;45.30;;
10013;SDS011;45684;48.358;10.746;2024-02-21T01:31:09;48.37;;;46.07;;
10013;SDS011;45684;48.358;10.746;2024-02-21T01:33:37;43.20;;;41.03;;
10013;SDS011;45684;48.358;10.746;2024-02-21T01:36:05;38.73;;;36.87;;
10013;SDS011;45684;48.358;10.746;2024-02-21T01:38:34;37.57;;;35.70;;
10013;SDS011;45684;48.358;10.746;2024-02-21T01:41:02;36.60;;;35.03;;
10013;SDS011;45684;48.358;10.746;2024-02-21T01:43:30;35.77;;;33.90;;
10013;SDS011;45684;48.358;10.746;2024-02-21T01:46:00;43.77;;;41.60;;
10013;SDS011;45684;48.358;10.746;2024-02-21T01:48:28;42.60;;;40.53;;
10013;SDS011;45684;48.358;10.746;2024-02-21T01:50:57;40.60;;;38.63;;
10013;SDS011;45684;48.358;10.746;2024-02-21T01:53:26;45.13;;;43.07;;
10013;SDS011;45684;48.358;10.746;2024-02-21T01:55:57;41.10;;;39.17;;
10013;SDS011;45684;48.358;10.746;2024-02-21T01:58:26;38.87;;;36.90;;
10013;SDS011;45684;48.358;10.746;2024-02-21T02:00:56;44.00;;;41.80;;
10013;SDS011;45684;48.358;10.746;2024-02-21T02:03:26;39.70;;;37.93;;
10013;SDS011;45684;48.358;10.746;2024-02-21T02:05:55;33.10;;;31.60;;
10013;SDS011;45684;48.358;10.746;2024-02-21T02:08:22;36.00;;;34.20;;
10013;SDS011;45684;48.358;10.746;2024-02-21T02:10:51;41.20;;;39.23;;
10013;SDS011;45684;48.358;10.746;2024-02-21T02:13:19;44.27;;;41.87;;
10013;SDS011;45684;48.358;10.746;2024-02-21T02:15:47;47.30;;;44.90;;
10013;SDS011;45684;48.358;10.746;2024-02-21T02:18:17;44.50;;;41.90;;
10013;SDS011;45684;48.358;10.746;2024-02-21T02:20:48;46.57;;;44.13;;
10013;SDS011;45684;48.358;10.746;2024-02-21T02:23:22;83.20;;;79.20;;
10013;SDS011;45684;48.358;10.746;2024-02-21T02:25:51;91.47;;;87.50;;
10013;SDS011;45684;48.358;10.746;2024-02-21T02:28:19;106.70;;;102.17;;
10013;SDS011;45684;48.358;10.746;2024-02-21T02:30:48;119.70;;;114.80;;
10013;SDS011;45684;48.358;10.746;2024-02-21T02:33:16;98.60;;;94.17;;
10013;SDS011;45684;48.358;10.746;2024-02-21T02:35:45;129.13;;;123.60;;
10013;SDS011;45684;48.358;10.746;2024-02-21T02:38:13;122.63;;;117.53;;
10013;SDS011;45684;48.358;10.746;2024-02-21T02:40:43;112.23;;;107.43;;
10013;SDS011;45684;48.358;10.746;2024-02-21T02:43:11;120.00;;;115.07;;
10013;SDS011;45684;48.358;10.746;2024-02-21T02:45:39;99.87;;;95.37;;
10013;SDS011;45684;48.358;10.746;2024-02-21T02:48:07;62.37;;;59.23;;
10013;SDS011;45684;48.358;10.746;2024-02-21T02:50:36;70.33;;;67.03;;
10013;SDS011;45684;48.358;10.746;2024-02-21T02:53:03;64.67;;;61.70;;
10013;SDS011;45684;48.358;10.746;2024-02-21T02:55:31;77.13;;;73.37;;
10013;SDS011;45684;48.358;10.746;2024-02-21T02:58:01;79.83;;;75.87;;
10013;SDS011;45684;48.358;10.746;2024-02-21T03:00:29;83.63;;;78.87;;
10013;SDS011;45684;48.358;10.746;2024-02-21T03:02:57;94.37;;;89.83;;
10013;SDS011;45684;48.358;10.746;2024-02-21T03:05:25;104.83;;;100.13;;
10013;SDS011;45684;48.358;10.746;2024-02-21T03:07:53;99.20;;;94.83;;
10013;SDS011;45684;48.358;10.746;2024-02-21T03:10:21;99.23;;;95.07;;
10013;SDS011;45684;48.358;10.746;2024-02-21T03:12:49;95.57;;;91.30;;
10013;SDS011;45684;48.358;10.746;2024-02-21T03:15:20;110.47;;;105.67;;
10013;SDS011;45684;48.358;10.746;2024-02-21T03:17:48;109.43;;;104.70;;
10013;SDS011;45684;48.358;10.746;2024-02-21T03:20:16;105.03;;;100.67;;
10013;SDS011;45684;48.358;10.746;2024-02-21T03:22:46;113.57;;;108.60;;
10013;SDS011;45684;48.358;10.746;2024-02-21T03:25:14;113.80;;;108.90;;
10013;SDS011;45684;48.358;10.746;2024-02-21T03:27:42;112.73;;;107.60;;
10013;SDS011;45684;48.358;10.746;2024-02-21T03:30:10;97.33;;;92.97;;
10013;SDS011;45684;48.358;10.746;2024-02-21T03:32:40;96.37;;;92.20;;
10013;SDS011;45684;48.358;10.746;2024-02-21T03:35:08;97.27;;;93.00;;
10013;SDS011;45684;48.358;10.746;2024-02-21T03:37:36;98.13;;;93.93;;
10013;SDS011;45684;48.358;10.746;2024-02-21T03:40:06;105.17;;;100.43;;
10013;SDS011;45684;48.358;10.746;2024-02-21T03:42:35;108.23;;;103.40;;
10013;SDS011;45684;48.358;10.746;2024-02-21T03:45:03;110.67;;;105.80;;
10013;SDS011;45684;48.358;10.746;2024-02-21T03:47:31;97.90;;;93.57;;
10013;SDS011;45684;48.358;10.746;2024-02-21T03:50:01;101.93;;;97.03;;
10013;SDS011;45684;48.358;10.746;2024-02-21T03:52:29;104.27;;;99.77;;
10013;SDS011;45684;48.358;10.746;2024-02-21T03:54:57;107.50;;;102.77;;
10013;SDS011;45684;48.358;10.746;2024-02-21T03:57:25;118.47;;;113.13;;
10013;SDS011;45684;48.358;10.746;2024-02-21T03:59:52;115.60;;;110.60;;
10013;SDS011;45684;48.358;10.746;2024-02-21T04:02:20;112.20;;;106.83;;
10013;SDS011;45684;48.358;10.746;2024-02-21T04:04:48;115.63;;;110.70;;
10013;SDS011;45684;48.358;10.746;2024-02-21T04:07:18;109.43;;;104.73;;
10013;SDS011;45684;48.358;10.746;2024-02-21T04:09:45;117.63;;;112.47;;
10013;SDS011;45684;48.358;10.746;2024-02-21T04:12:13;101.57;;;96.97;;
10013;SDS011;45684;48.358;10.746;2024-02-21T04:14:41;101.27;;;96.97;;
10013;SDS011;45684;48.358;10.746;2024-02-21T04:17:12;105.93;;;101.23;;
10013;SDS011;45684;48.358;10.746;2024-02-21T04:19:40;113.67;;;108.93;;
10013;SDS011;45684;48.358;10.746;2024-02-21T04:22:10;114.97;;;109.70;;
10013;SDS011;45684;48.358;10.746;2024-02-21T04:24:39;111.70;;;106.97;;
10013;SDS011;45684;48.358;10.746;2024-02-21T04:27:07;119.77;;;114.50;;
10013;SDS011;45684;48.358;10.746;2024-02-21T04:29:35;124.37;;;119.10;;
10013;SDS011;45684;48.358;10.746;2024-02-21T04:32:03;126.43;;;120.97;;
10013;SDS011;45684;48.358;10.746;2024-02-21T04:34:31;132.80;;;127.33;;
10013;SDS011;45684;48.358;10.746;2024-02-21T04:37:00;126.37;;;121.00;;
10013;SDS011;45684;48.358;10.746;2024-02-21T04:39:27;125.00;;;119.67;;
10013;SDS011;45684;48.358;10.746;2024-02-21T04:41:57;125.73;;;120.43;;
10013;SDS011;45684;48.358;10.746;2024-02-21T04:44:24;122.43;;;117.50;;
10013;SDS011;45684;48.358;10.746;2024-02-21T04:46:52;137.73;;;131.90;;
10013;SDS011;45684;48.358;10.746;2024-02-21T04:49:20;119.13;;;114.07;;
10013;SDS011;45684;48.358;10.746;2024-02-21T04:51:48;104.07;;;99.77;;
10013;SDS011;45684;48.358;10.746;2024-02-21T04:54:16;128.60;;;123.07;;
10013;SDS011;45684;48.358;10.746;2024-02-21T04:56:44;110.20;;;105.60;;
10013;SDS011;45684;48.358;10.746;2024-02-21T04:59:13;102.83;;;98.47;;
10013;SDS011;45684;48.358;10.746;2024-02-21T05:01:41;131.50;;;126.13;;
10013;SDS011;45684;48.358;10.746;2024-02-21T05:04:09;101.27;;;97.00;;
10013;SDS011;45684;48.358;10.746;2024-02-21T05:06:37;145.17;;;139.30;;
10013;SDS011;45684;48.358;10.746;2024-02-21T05:09:06;146.00;;;140.33;;
10013;SDS011;45684;48.358;10.746;2024-02-21T05:11:35;124.50;;;119.47;;
10013;SDS011;45684;48.358;10.746;2024-02-21T05:14:03;152.07;;;146.30;;
10013;SDS011;45684;48.358;10.746;2024-02-21T05:16:33;123.53;;;118.40;;
10013;SDS011;45684;48.358;10.746;2024-02-21T05:19:01;136.13;;;130.20;;
10013;SDS011;45684;48.358;10.746;2024-02-21T05:21:30;128.50;;;123.20;;
10013;SDS011;45684;48.358;10.746;2024-02-21T05:23:59;139.03;;;133.50;;
10013;SDS011;45684;48.358;10.746;2024-02-21T05:26:27;127.77;;;122.40;;
10013;SDS011;45684;48.358;10.746;2024-02-21T05:28:55;113.80;;;108.97;;
10013;SDS011;45684;48.358;10.746;2024-02-21T05:31:23;99.90;;;95.83;;
10013;SDS011;45684;48.358;10.746;2024-02-21T05:33:53;128.33;;;123.07;;
10013;SDS011;45684;48.358;10.746;2024-02-21T05:36:20;193.03;;;185.30;;
10013;SDS011;45684;48.358;10.746;2024-02-21T05:38:48;192.33;;;184.60;;
10013;SDS011;45684;48.358;10.746;2024-02-21T05:41:16;194.47;;;187.03;;
10013;SDS011;45684;48.358;10.746;2024-02-21T05:43:44;179.23;;;172.30;;
10013;SDS011;45684;48.358;10.746;2024-02-21T05:46:12;154.40;;;148.50;;
10013;SDS011;45684;48.358;10.746;2024-02-21T05:48:40;144.17;;;138.00;;
10013;SDS011;45684;48.358;10.746;2024-02-21T05:51:09;138.07;;;131.10;;
10013;SDS011;45684;48.358;10.746;2024-02-21T05:53:37;143.20;;;135.90;;
10013;SDS011;45684;48.358;10.746;2024-02-21T05:56:09;137.97;;;131.23;;
10013;SDS011;45684;48.358;10.746;2024-02-21T05:58:37;153.80;;;146.57;;
10013;SDS011;45684;48.358;10.746;2024-02-21T06:01:05;160.87;;;153.10;;
10013;SDS011;45684;48.358;10.746;2024-02-21T06:03:34;151.93;;;144.63;;
10013;SDS011;45684;48.358;10.746;2024-02-21T06:06:03;162.73;;;155.13;;
10013;SDS011;45684;48.358;10.746;2024-02-21T06:08:33;168.50;;;160.57;;
10013;SDS011;45684;48.358;10.746;2024-02-21T06:11:01;198.93;;;188.40;;
10013;SDS011;45684;48.358;10.746;2024-02-21T06:13:29;243.23;;;230.30;;
10013;SDS011;45684;48.358;10.746;2024-02-21T06:15:57;263.20;;;249.40;;
10013;SDS011;45684;48.358;10.746;2024-02-21T06:18:25;268.73;;;255.33;;
10013;SDS011;45684;48.358;10.746;2024-02-21T06:20:53;246.47;;;233.97;;
10013;SDS011;45684;48.358;10.746;2024-02-21T06:23:20;272.00;;;257.80;;
10013;SDS011;45684;48.358;10.746;2024-02-21T06:25:50;289.43;;;274.93;;
10013;SDS011;45684;48.358;10.746;2024-02-21T06:28:18;247.40;;;237.30;;
10013;SDS011;45684;48.358;10.746;2024-02-21T06:30:46;198.07;;;189.60;;
10013;SDS011;45684;48.358;10.746;2024-02-21T06:33:14;307.40;;;293.13;;
10013;SDS011;45684;48.358;10.746;2024-02-21T06:35:42;217.13;;;207.73;;
10013;SDS011;45684;48.358;10.746;2024-02-21T06:38:13;167.63;;;160.67;;
10013;SDS011;45684;48.358;10.746;2024-02-21T06:40:43;214.20;;;204.33;;
10013;SDS011;45684;48.358;10.746;2024-02-21T06:43:18;356.27;;;338.23;;
10013;SDS011;45684;48.358;10.746;2024-02-21T06:45:47;338.20;;;320.37;;
10013;SDS011;45684;48.358;10.746;2024-02-21T06:48:17;318.10;;;300.77;;
10013;SDS011;45684;48.358;10.746;2024-02-21T06:50:46;344.83;;;325.97;;
10013;SDS011;45684;48.358;10.746;2024-02-21T06:53:14;337.37;;;317.67;;
10013;SDS011;45684;48.358;10.746;2024-02-21T06:55:42;332.37;;;313.50;;
10013;SDS011;45684;48.358;10.746;2024-02-21T06:58:10;351.07;;;330.67;;
10013;SDS011;45684;48.358;10.746;2024-02-21T07:00:40;316.53;;;298.30;;
10013;SDS011;45684;48.358;10.746;2024-02-21T07:03:09;304.20;;;287.60;;
10013;SDS011;45684;48.358;10.746;2024-02-21T07:05:37;257.17;;;243.60;;
10013;SDS011;45684;48.358;10.746;2024-02-21T07:08:06;213.97;;;203.97;;
10013;SDS011;45684;48.358;10.746;2024-02-21T07:10:34;195.70;;;187.37;;
10013;SDS011;45684;48.358;10.746;2024-02-21T07:13:02;183.10;;;175.37;;
10013;SDS011;45684;48.358;10.746;2024-02-21T07:15:29;153.77;;;147.10;;
10013;SDS011;45684;48.358;10.746;2024-02-21T07:17:59;168.17;;;160.77;;
10013;SDS011;45684;48.358;10.746;2024-02-21T07:20:27;194.07;;;183.97;;
10013;SDS011;45684;48.358;10.746;2024-02-21T07:22:55;181.53;;;171.97;;
10013;SDS011;45684;48.358;10.746;2024-02-21T07:25:23;159.20;;;151.57;;
10013;SDS011;45684;48.358;10.746;2024-02-21T07:27:51;165.43;;;157.70;;
10013;SDS011;45684;48.358;10.746;2024-02-21T07:30:19;189.23;;;179.70;;
10013;SDS011;45684;48.358;10.746;2024-02-21T07:32:48;141.97;;;135.90;;
10013;SDS011;45684;48.358;10.746;2024-02-21T07:35:18;169.53;;;162.67;;
10013;SDS011;45684;48.358;10.746;2024-02-21T07:37:46;179.57;;;172.27;;
10013;SDS011;45684;48.358;10.746;2024-02-21T07:40:15;139.80;;;133.97;;
10013;SDS011;45684;48.358;10.746;2024-02-21T07:42:44;139.20;;;133.27;;
10013;SDS011;45684;48.358;10.746;2024-02-21T07:45:17;142.10;;;135.73;;
10013;SDS011;45684;48.358;10.746;2024-02-21T07:47:48;202.13;;;192.17;;
10013;SDS011;45684;48.358;10.746;2024-02-21T07:50:17;237.00;;;226.70;;
10013;SDS011;45684;48.358;10.746;2024-02-21T07:52:45;210.27;;;201.07;;
10013;SDS011;45684;48.358;10.746;2024-02-21T07:55:12;201.73;;;192.20;;
10013;SDS011;45684;48.358;10.746;2024-02-21T07:57:40;200.53;;;190.77;;
10013;SDS011;45684;48.358;10.746;2024-02-21T08:00:08;192.87;;;183.87;;
10013;SDS011;45684;48.358;10.746;2024-02-21T08:02:41;167.43;;;160.03;;
10013;SDS011;45684;48.358;10.746;2024-02-21T08:05:10;110.07;;;103.63;;
10013;SDS011;45684;48.358;10.746;2024-02-21T08:07:40;154.47;;;147.97;;
10013;SDS011;45684;48.358;10.746;2024-02-21T08:10:08;176.70;;;168.50;;
10013;SDS011;45684;48.358;10.746;2024-02-21T08:12:36;341.80;;;324.47;;
10013;SDS011;45684;48.358;10.746;2024-02-21T08:15:04;406.70;;;383.83;;
10013;SDS011;45684;48.358;10.746;2024-02-21T08:17:34;406.03;;;385.20;;
10013;SDS011;45684;48.358;10.746;2024-02-21T08:20:02;406.30;;;387.27;;
10013;SDS011;45684;48.358;10.746;2024-02-21T08:22:30;405.77;;;388.23;;
10013;SDS011;45684;48.358;10.746;2024-02-21T08:25:00;386.00;;;369.13;;
10013;SDS011;45684;48.358;10.746;2024-02-21T08:27:28;386.60;;;369.50;;
10013;SDS011;45684;48.358;10.746;2024-02-21T08:29:55;381.07;;;364.57;;
10013;SDS011;45684;48.358;10.746;2024-02-21T08:32:23;428.50;;;409.73;;
10013;SDS011;45684;48.358;10.746;2024-02-21T08:34:51;437.70;;;418.83;;
10013;SDS011;45684;48.358;10.746;2024-02-21T08:37:19;437.37;;;418.83;;
10013;SDS011;45684;48.358;10.746;2024-02-21T08:39:47;407.90;;;389.97;;
10013;SDS011;45684;48.358;10.746;2024-02-21T08:42:17;394.37;;;377.53;;
10013;SDS011;45684;48.358;10.746;2024-02-21T08:44:45;206.53;;;195.53;;
10013;SDS011;45684;48.358;10.746;2024-02-21T08:47:13;137.33;;;131.80;;
10013;SDS011;45684;48.358;10.746;2024-02-21T08:49:41;89.83;;;83.97;;
10013;SDS011;45684;48.358;10.746;2024-02-21T08:52:09;49.57;;;46.97;;
10013;SDS011;45684;48.358;10.746;2024-02-21T08:54:37;42.13;;;39.23;;
10013;SDS011;45684;48.358;10.746;2024-02-21T08:57:04;22.70;;;18.90;;
10013;SDS011;45684;48.358;10.746;2024-02-21T08:59:34;10.40;;;9.50;;
10013;SDS011;45684;48.358;10.746;2024-02-21T09:02:01;26.50;;;24.20;;
10013;SDS011;45684;48.358;10.746;2024-02-21T09:04:30;16.80;;;15.07;;
10013;SDS011;45684;48.358;10.746;2024-02-21T09:06:59;15.00;;;12.37;;
10013;SDS011;45684;48.358;10.746;2024-02-21T09:09:27;10.87;;;9.97;;
10013;SDS011;45684;48.358;10.746;2024-02-21T09:11:55;28.53;;;25.47;;
10013;SDS011;45684;48.358;10.746;2024-02-21T09:14:24;19.43;;;17.47;;
10013;SDS011;45684;48.358;10.746;2024-02-21T09:16:53;16.00;;;14.30;;
10013;SDS011;45684;48.358;10.746;2024-02-21T09:19:22;22.87;;;19.70;;
10013;SDS011;45684;48.358;10.746;2024-02-21T09:21:50;17.17;;;14.40;;
10013;SDS011;45684;48.358;10.746;2024-02-21T09:24:18;7.87;;;7.17;;
10013;SDS011;45684;48.358;10.746;2024-02-21T09:26:46;17.00;;;14.17;;
10013;SDS011;45684;48.358;10.746;2024-02-21T09:29:14;32.30;;;25.00;;
10013;SDS011;45684;48.358;10.746;2024-02-21T09:31:43;12.20;;;10.73;;
10013;SDS011;45684;48.358;10.746;2024-02-21T09:34:12;12.03;;;9.73;;
10013;SDS011;45684;48.358;10.746;2024-02-21T09:36:40;13.57;;;11.23;;
10013;SDS011;45684;48.358;10.746;2024-02-21T09:39:08;12.53;;;10.93;;
10013;SDS011;45684;48.358;10.746;2024-02-21T09:41:37;12.20;;;10.87;;
10013;SDS011;45684;48.358;10.746;2024-02-21T09:44:10;10.13;;;8.57;;
10013;SDS011;45684;48.358;10.746;2024-02-21T09:46:43;10.80;;;8.87;;
10013;SDS011;45684;48.358;10.746;2024-02-21T09:49:25;43.27;;;31.97;;
10013;SDS011;45684;48.358;10.746;2024-02-21T09:52:00;20.80;;;14.67;;
10013;SDS011;45684;48.358;10.746;2024-02-21T09:54:30;47.33;;;31.77;;
10013;SDS011;45684;48.358;10.746;2024-02-21T09:56:58;12.77;;;10.10;;
10013;SDS011;45684;48.358;10.746;2024-02-21T09:59:27;16.20;;;12.90;;
10013;SDS011;45684;48.358;10.746;2024-02-21T10:01:55;11.90;;;9.77;;
10013;SDS011;45684;48.358;10.746;2024-02-21T10:04:24;36.80;;;27.47;;
10013;SDS011;45684;48.358;10.746;2024-02-21T10:06:53;17.20;;;13.60;;
10013;SDS011;45684;48.358;10.746;2024-02-21T10:09:21;19.97;;;17.70;;
10013;SDS011;45684;48.358;10.746;2024-02-21T10:11:50;26.53;;;20.43;;
10013;SDS011;45684;48.358;10.746;2024-02-21T10:14:18;22.73;;;17.93;;
10013;SDS011;45684;48.358;10.746;2024-02-21T10:16:47;9.57;;;8.60;;
10013;SDS011;45684;48.358;10.746;2024-02-21T10:19:16;63.33;;;42.43;;
10013;SDS011;45684;48.358;10.746;2024-02-21T10:21:59;26.17;;;21.87;;
10013;SDS011;45684;48.358;10.746;2024-02-21T10:24:28;9.40;;;8.50;;
10013;SDS011;45684;48.358;10.746;2024-02-21T10:26:59;30.83;;;26.33;;
10013;SDS011;45684;48.358;10.746;2024-02-21T10:29:30;8.90;;;8.10;;
10013;SDS011;45684;48.358;10.746;2024-02-21T10:32:07;8.00;;;7.30;;
10013;SDS011;45684;48.358;10.746;2024-02-21T10:34:36;10.53;;;8.70;;
10013;SDS011;45684;48.358;10.746;2024-02-21T10:37:07;13.10;;;11.73;;
10013;SDS011;45684;48.358;10.746;2024-02-21T10:39:37;25.57;;;20.47;;
10013;SDS011;45684;48.358;10.746;2024-02-21T10:42:06;21.00;;;16.37;;
10013;SDS011;45684;48.358;10.746;2024-02-21T10:44:36;5.03;;;4.67;;
10013;SDS011;45684;48.358;10.746;2024-02-21T10:47:07;5.33;;;4.97;;
10013;SDS011;45684;48.358;10.746;2024-02-21T10:49:37;7.90;;;7.17;;
10013;SDS011;45684;48.358;10.746;2024-02-21T10:52:09;4.10;;;3.90;;
10013;SDS011;45684;48.358;10.746;2024-02-21T10:54:44;6.43;;;5.93;;
10013;SDS011;45684;48.358;10.746;2024-02-21T10:57:13;4.50;;;4.30;;
10013;SDS011;45684;48.358;10.746;2024-02-21T10:59:41;5.70;;;5.40;;
10013;SDS011;45684;48.358;10.746;2024-02-21T11:02:11;5.97;;;5.67;;
10013;SDS011;45684;48.358;10.746;2024-02-21T11:04:40;7.90;;;7.20;;
10013;SDS011;45684;48.358;10.746;2024-02-21T11:07:11;5.97;;;5.57;;
10013;SDS011;45684;48.358;10.746;2024-02-21T11:09:40;5.37;;;5.03;;
10013;SDS011;45684;48.358;10.746;2024-02-21T11:12:08;12.60;;;10.90;;
10013;SDS011;45684;48.358;10.746;2024-02-21T11:14:37;7.43;;;6.83;;
10013;SDS011;45684;48.358;10.746;2024-02-21T11:17:14;6.07;;;5.67;;
10013;SDS011;45684;48.358;10.746;2024-02-21T11:19:43;5.73;;;4.93;;
10013;SDS011;45684;48.358;10.746;2024-02-21T11:22:16;4.30;;;4.10;;
10013;SDS011;45684;48.358;10.746;2024-02-21T11:24:46;3.80;;;3.60;;
10013;SDS011;45684;48.358;10.746;2024-02-21T11:27:14;3.97;;;3.77;;
10013;SDS011;45684;48.358;10.746;2024-02-21T11:29:43;4.20;;;4.00;;
10013;SDS011;45684;48.358;10.746;2024-02-21T11:32:13;3.93;;;3.80;;
10013;SDS011;45684;48.358;10.746;2024-02-21T11:34:52;4.77;;;4.27;;
10013;SDS011;45684;48.358;10.746;2024-02-21T11:37:23;5.97;;;5.47;;
10013;SDS011;45684;48.358;10.746;2024-02-21T11:39:53;5.90;;;5.43;;
10013;SDS011;45684;48.358;10.746;2024-02-21T11:42:21;5.63;;;5.23;;
10013;SDS011;45684;48.358;10.746;2024-02-21T11:44:49;4.10;;;3.80;;
10013;SDS011;45684;48.358;10.746;2024-02-21T11:47:16;4.47;;;4.20;;
10013;SDS011;45684;48.358;10.746;2024-02-21T11:49:45;3.90;;;3.70;;
10013;SDS011;45684;48.358;10.746;2024-02-21T11:52:15;4.70;;;4.40;;
10013;SDS011;45684;48.358;10.746;2024-02-21T11:54:47;3.80;;;3.60;;
10013;SDS011;45684;48.358;10.746;2024-02-21T11:57:15;4.07;;;3.90;;
10013;SDS011;45684;48.358;10.746;2024-02-21T11:59:45;4.47;;;4.17;;
10013;SDS011;45684;48.358;10.746;2024-02-21T12:02:13;3.90;;;3.70;;
10013;SDS011;45684;48.358;10.746;2024-02-21T12:04:41;3.80;;;3.70;;
10013;SDS011;45684;48.358;10.746;2024-02-21T12:07:11;3.90;;;3.70;;
10013;SDS011;45684;48.358;10.746;2024-02-21T12:09:41;3.90;;;3.70;;
10013;SDS011;45684;48.358;10.746;2024-02-21T12:12:10;4.10;;;3.90;;
10013;SDS011;45684;48.358;10.746;2024-02-21T12:14:38;4.00;;;3.80;;
10013;SDS011;45684;48.358;10.746;2024-02-21T12:17:06;4.13;;;3.90;;
10013;SDS011;45684;48.358;10.746;2024-02-21T12:19:34;4.03;;;3.90;;
10013;SDS011;45684;48.358;10.746;2024-02-21T12:22:02;4.00;;;3.80;;
10013;SDS011;45684;48.358;10.746;2024-02-21T12:24:32;4.30;;;4.10;;
10013;SDS011;45684;48.358;10.746;2024-02-21T12:27:00;4.40;;;4.20;;
10013;SDS011;45684;48.358;10.746;2024-02-21T12:29:31;4.17;;;4.00;;
10013;SDS011;45684;48.358;10.746;2024-02-21T12:31:59;4.30;;;4.10;;
10013;SDS011;45684;48.358;10.746;2024-02-21T12:34:27;4.13;;;3.93;;
10013;SDS011;45684;48.358;10.746;2024-02-21T12:37:14;4.00;;;3.70;;
10013;SDS011;45684;48.358;10.746;2024-02-21T12:39:42;5.40;;;5.00;;
10013;SDS011;45684;48.358;10.746;2024-02-21T12:42:10;4.00;;;3.80;;
10013;SDS011;45684;48.358;10.746;2024-02-21T12:44:40;4.33;;;4.10;;
10013;SDS011;45684;48.358;10.746;2024-02-21T12:47:08;3.90;;;3.60;;
10013;SDS011;45684;48.358;10.746;2024-02-21T12:49:36;3.90;;;3.70;;
10013;SDS011;45684;48.358;10.746;2024-02-21T12:52:10;4.03;;;3.90;;
10013;SDS011;45684;48.358;10.746;2024-02-21T12:54:39;4.00;;;3.70;;
10013;SDS011;45684;48.358;10.746;2024-02-21T12:57:08;3.93;;;3.73;;
10013;SDS011;45684;48.358;10.746;2024-02-21T12:59:36;3.90;;;3.70;;
10013;SDS011;45684;48.358;10.746;2024-02-21T13:02:05;3.93;;;3.73;;
10013;SDS011;45684;48.358;10.746;2024-02-21T13:04:35;3.60;;;3.50;;
10013;SDS011;45684;48.358;10.746;2024-02-21T13:07:02;4.20;;;3.90;;
10013;SDS011;45684;48.358;10.746;2024-02-21T13:09:32;4.17;;;3.97;;
10013;SDS011;45684;48.358;10.746;2024-02-21T13:12:00;6.70;;;6.17;;
10013;SDS011;45684;48.358;10.746;2024-02-21T13:14:29;7.50;;;6.80;;
10013;SDS011;45684;48.358;10.746;2024-02-21T13:16:59;4.30;;;4.10;;
10013;SDS011;45684;48.358;10.746;2024-02-21T13:19:28;5.87;;;5.47;;
10013;SDS011;45684;48.358;10.746;2024-02-21T13:21:56;15.30;;;13.80;;
10013;SDS011;45684;48.358;10.746;2024-02-21T13:24:24;9.37;;;8.67;;
10013;SDS011;45684;48.358;10.746;2024-02-21T13:26:52;7.43;;;6.93;;
10013;SDS011;45684;48.358;10.746;2024-02-21T13:29:20;9.27;;;8.57;;
10013;SDS011;45684;48.358;10.746;2024-02-21T13:31:48;13.80;;;12.63;;
10013;SDS011;45684;48.358;10.746;2024-02-21T13:34:16;10.93;;;10.00;;
10013;SDS011;45684;48.358;10.746;2024-02-21T13:36:46;7.10;;;6.70;;
10013;SDS011;45684;48.358;10.746;2024-02-21T13:39:14;18.07;;;16.43;;
10013;SDS011;45684;48.358;10.746;2024-02-21T13:41:42;11.07;;;10.17;;
10013;SDS011;45684;48.358;10.746;2024-02-21T13:44:10;11.20;;;10.27;;
10013;SDS011;45684;48.358;10.746;2024-02-21T13:46:39;11.07;;;10.17;;
10013;SDS011;45684;48.358;10.746;2024-02-21T13:49:07;5.80;;;5.50;;
10013;SDS011;45684;48.358;10.746;2024-02-21T13:51:35;13.07;;;11.87;;
10013;SDS011;45684;48.358;10.746;2024-02-21T13:54:04;10.80;;;9.83;;
10013;SDS011;45684;48.358;10.746;2024-02-21T13:56:35;15.90;;;14.40;;
10013;SDS011;45684;48.358;10.746;2024-02-21T13:59:03;26.53;;;23.67;;
10013;SDS011;45684;48.358;10.746;2024-02-21T14:01:31;18.30;;;16.60;;
10013;SDS011;45684;48.358;10.746;2024-02-21T14:03:59;7.03;;;6.43;;
10013;SDS011;45684;48.358;10.746;2024-02-21T14:06:27;6.03;;;5.63;;
10013;SDS011;45684;48.358;10.746;2024-02-21T14:08:55;15.53;;;13.70;;
10013;SDS011;45684;48.358;10.746;2024-02-21T14:11:24;16.80;;;15.00;;
10013;SDS011;45684;48.358;10.746;2024-02-21T14:13:53;20.57;;;18.37;;